Time;durP1;ratioP1;P1;durP2;ratioP2;P2;SDS_P1;SDS_P2;PMS_P1;PMS_P2;Temp;Humidity;BMP_temperature;BMP_pressure;BME280_temperature;BME280_humidity;BME280_pressure;Samples;Min_cycle;Max_cycle;Signal;HPM_P1;HPM_P2
2023/08/11 00:03:58;;;;;;;;;;;;;;;17.67;62.78613;102103.8;;;;-70
2023/08/11 00:08:58;;;;;;;;;;;;;;;17.64;62.71484;102107.9;;;;-69
2023/08/11 00:12:35;;;;;;;0.2;0.1;;;;;;;;;;;;;-69
2023/08/11 00:13:58;;;;;;;;;;;;;;;17.6;63.69141;102103.5;;;;-69
2023/08/11 00:18:58;;;;;;;;;;;;;;;17.56;63.3252;102106.7;;;;-70
2023/08/11 00:23:58;;;;;;;;;;;;;;;17.55;63.53809;102099.4;;;;-70
2023/08/11 00:28:58;;;;;;;;;;;;;;;17.52;63.82715;102101.3;;;;-71
2023/08/11 00:33:58;;;;;;;;;;;;;;;17.45;63.32031;102102.5;;;;-70
2023/08/11 00:39:00;;;;;;;;;;;;;;;17.43;63.80371;102102.1;;;;-69
2023/08/11 00:42:37;;;;;;;0.2;0.1;;;;;;;;;;;;;-72
2023/08/11 00:43:58;;;;;;;;;;;;;;;17.43;64.0752;102099.6;;;;-70
2023/08/11 00:48:58;;;;;;;;;;;;;;;17.4;64.4082;102092.2;;;;-71
2023/08/11 00:53:59;;;;;;;;;;;;;;;17.33;64.85059;102087;;;;-70
2023/08/11 00:58:58;;;;;;;;;;;;;;;17.31;64.59863;102082.5;;;;-70
2023/08/11 01:03:58;;;;;;;;;;;;;;;17.28;64.72949;102070.9;;;;-72
2023/08/11 01:09:04;;;;;;;;;;;;;;;17.24;65.54883;102071.5;;;;-71
2023/08/11 01:12:45;;;;;;;0.3;0.1;;;;;;;;;;;;;-71
2023/08/11 01:14:04;;;;;;;;;;;;;;;17.24;65.01758;102069.3;;;;-71
2023/08/11 01:18:58;;;;;;;;;;;;;;;17.21;65.30566;102062.4;;;;-71
2023/08/11 01:23:58;;;;;;;;;;;;;;;17.11;66.81543;102051.4;;;;-71
2023/08/11 01:29:00;;;;;;;;;;;;;;;17.13;65.96094;102055.4;;;;-70
2023/08/11 01:33:58;;;;;;;;;;;;;;;17.1;66.125;102050;;;;-70
2023/08/11 01:38:58;;;;;;;;;;;;;;;17.06;66.2998;102050.3;;;;-70
2023/08/11 01:42:44;;;;;;;0.3;0.1;;;;;;;;;;;;;-69
2023/08/11 01:43:58;;;;;;;;;;;;;;;17.06;66.13086;102049.6;;;;-71
2023/08/11 01:48:59;;;;;;;;;;;;;;;17.02;66.8457;102050.7;;;;-69
2023/08/11 01:53:58;;;;;;;;;;;;;;;17.01;66.58496;102043.1;;;;-71
2023/08/11 01:59:00;;;;;;;;;;;;;;;16.95;67.52441;102039;;;;-71
2023/08/11 02:03:58;;;;;;;;;;;;;;;16.96;66.89355;102037.8;;;;-70
2023/08/11 02:08:58;;;;;;;;;;;;;;;16.93;67.4082;102033.4;;;;-69
2023/08/11 02:12:45;;;;;;;0.2;0.1;;;;;;;;;;;;;-70
2023/08/11 02:13:58;;;;;;;;;;;;;;;16.9;67.55078;102044.4;;;;-70
2023/08/11 02:18:58;;;;;;;;;;;;;;;16.88;67.33203;102041.4;;;;-69
2023/08/11 02:23:58;;;;;;;;;;;;;;;16.84;67.82227;102040.2;;;;-72
2023/08/11 02:28:58;;;;;;;;;;;;;;;16.83;67.6748;102030.9;;;;-70
2023/08/11 02:33:58;;;;;;;;;;;;;;;16.8;67.64746;102033.1;;;;-70
2023/08/11 02:38:58;;;;;;;;;;;;;;;16.77;67.57617;102032.5;;;;-70
2023/08/11 02:42:56;;;;;;;0.4;0.2;;;;;;;;;;;;;-70
2023/08/11 02:43:58;;;;;;;;;;;;;;;16.75;67.61719;102032.3;;;;-71
2023/08/11 02:48:58;;;;;;;;;;;;;;;16.72;67.97363;102030.7;;;;-71
2023/08/11 02:53:58;;;;;;;;;;;;;;;16.68;68.14648;102027.5;;;;-70
2023/08/11 02:58:58;;;;;;;;;;;;;;;16.66;68.35742;102028.7;;;;-70
2023/08/11 03:03:59;;;;;;;;;;;;;;;16.63;68.24121;102022;;;;-72
2023/08/11 03:08:58;;;;;;;;;;;;;;;16.59;68.65039;102017.4;;;;-70
2023/08/11 03:12:51;;;;;;;0.2;0.1;;;;;;;;;;;;;-70
2023/08/11 03:13:58;;;;;;;;;;;;;;;16.58;69.13477;102013;;;;-71
2023/08/11 03:18:58;;;;;;;;;;;;;;;16.55;68.74609;102013.8;;;;-70
2023/08/11 03:23:58;;;;;;;;;;;;;;;16.52;68.77539;102001.1;;;;-70
2023/08/11 03:28:58;;;;;;;;;;;;;;;16.53;68.86719;102002.3;;;;-71
2023/08/11 03:33:58;;;;;;;;;;;;;;;16.51;69.02051;102006.8;;;;-71
2023/08/11 03:38:58;;;;;;;;;;;;;;;16.46;69.78906;102015;;;;-72
2023/08/11 03:42:53;;;;;;;0.2;0;;;;;;;;;;;;;-70
2023/08/11 03:43:59;;;;;;;;;;;;;;;16.43;69.65039;102012;;;;-69
2023/08/11 03:48:58;;;;;;;;;;;;;;;16.42;69.91895;102010.7;;;;-70
2023/08/11 03:53:58;;;;;;;;;;;;;;;16.4;69.31934;102007.5;;;;-71
2023/08/11 03:58:58;;;;;;;;;;;;;;;16.37;69.52734;101995.7;;;;-70
2023/08/11 04:03:58;;;;;;;;;;;;;;;16.36;69.875;101993.2;;;;-70
2023/08/11 04:08:58;;;;;;;;;;;;;;;16.34;69.9834;101979.1;;;;-70
2023/08/11 04:12:56;;;;;;;0.3;0.2;;;;;;;;;;;;;-70
2023/08/11 04:13:58;;;;;;;;;;;;;;;16.33;70.4668;101975.8;;;;-71
2023/08/11 04:18:58;;;;;;;;;;;;;;;16.32;70.00293;101970.2;;;;-69
2023/08/11 04:23:58;;;;;;;;;;;;;;;16.31;71.1709;101967.3;;;;-69
2023/08/11 04:28:58;;;;;;;;;;;;;;;16.29;70.24609;101967.5;;;;-71
2023/08/11 04:33:58;;;;;;;;;;;;;;;16.28;70.29102;101965.3;;;;-70
2023/08/11 04:38:58;;;;;;;;;;;;;;;16.28;70.75;101961.8;;;;-71
2023/08/11 04:42:59;;;;;;;0.2;0;;;;;;;;;;;;;-71
2023/08/11 04:43:58;;;;;;;;;;;;;;;16.28;70.57031;101959.3;;;;-70
2023/08/11 04:48:58;;;;;;;;;;;;;;;16.27;70.95117;101950.8;;;;-71
2023/08/11 04:54:01;;;;;;;;;;;;;;;16.25;70.49902;101946.8;;;;-69
2023/08/11 04:58:58;;;;;;;;;;;;;;;16.28;70.97559;101949.4;;;;-70
2023/08/11 05:03:58;;;;;;;;;;;;;;;16.29;71.01074;101950.9;;;;-70
2023/08/11 05:08:57;;;;;;;;;;;;;;;16.31;71.08203;101944.7;;;;-69
2023/08/11 05:13:01;;;;;;;0.4;0.2;;;;;;;;;;;;;-69
2023/08/11 05:13:58;;;;;;;;;;;;;;;16.34;72.44531;101942.2;;;;-69
2023/08/11 05:18:58;;;;;;;;;;;;;;;16.36;71.21289;101942.8;;;;-70
2023/08/11 05:23:58;;;;;;;;;;;;;;;16.37;71.81055;101945.2;;;;-70
2023/08/11 05:28:58;;;;;;;;;;;;;;;16.43;71.38184;101944.7;;;;-72
2023/08/11 05:33:58;;;;;;;;;;;;;;;16.5;71.21387;101932.6;;;;-70
2023/08/11 05:38:58;;;;;;;;;;;;;;;16.54;71.55762;101939.1;;;;-72
2023/08/11 05:43:04;;;;;;;0.2;0.1;;;;;;;;;;;;;-71
2023/08/11 05:43:58;;;;;;;;;;;;;;;16.62;71.21094;101946.3;;;;-70
2023/08/11 05:48:58;;;;;;;;;;;;;;;16.89;71.71484;101946.2;;;;-70
2023/08/11 05:53:58;;;;;;;;;;;;;;;17.29;70.77637;101948.4;;;;-71
2023/08/11 05:58:58;;;;;;;;;;;;;;;17.75;69.63184;101947.5;;;;-71
2023/08/11 06:03:58;;;;;;;;;;;;;;;18.28;68.09863;101946;;;;-69
2023/08/11 06:08:58;;;;;;;;;;;;;;;18.73;67.5;101942.1;;;;-70
2023/08/11 06:13:07;;;;;;;1.1;0.9;;;;;;;;;;;;;-71
2023/08/11 06:13:58;;;;;;;;;;;;;;;19.12;66.66406;101946.3;;;;-72
2023/08/11 06:18:58;;;;;;;;;;;;;;;19.5;66.39258;101942.1;;;;-71
2023/08/11 06:23:58;;;;;;;;;;;;;;;19.86;65.33301;101945.9;;;;-72
2023/08/11 06:28:58;;;;;;;;;;;;;;;20.25;64.93555;101947.7;;;;-72
2023/08/11 06:33:58;;;;;;;;;;;;;;;20.59;64.30371;101939.8;;;;-71
2023/08/11 06:38:58;;;;;;;;;;;;;;;20.95;63.52344;101939.4;;;;-71
2023/08/11 06:43:10;;;;;;;0.3;0.2;;;;;;;;;;;;;-71
2023/08/11 06:44:01;;;;;;;;;;;;;;;21.18;63.46484;101933;;;;-71
2023/08/11 06:49:00;;;;;;;;;;;;;;;21.51;63.25;101930.4;;;;-71
2023/08/11 06:53:58;;;;;;;;;;;;;;;21.83;62.42773;101926.5;;;;-71
2023/08/11 06:58:58;;;;;;;;;;;;;;;22.06;62.18555;101923.5;;;;-71
2023/08/11 07:03:58;;;;;;;;;;;;;;;22.46;61.16699;101925.6;;;;-70
2023/08/11 07:08:58;;;;;;;;;;;;;;;22.66;60.89746;101923;;;;-70
2023/08/11 07:13:13;;;;;;;0.2;0.1;;;;;;;;;;;;;-72
2023/08/11 07:13:58;;;;;;;;;;;;;;;22.72;61.4082;101924.7;;;;-70
2023/08/11 07:18:58;;;;;;;;;;;;;;;23.12;60.37402;101928.3;;;;-71
2023/08/11 07:23:58;;;;;;;;;;;;;;;23.41;60.06934;101931.1;;;;-71
2023/08/11 07:28:58;;;;;;;;;;;;;;;23.53;59.89258;101933.1;;;;-71
2023/08/11 07:33:57;;;;;;;;;;;;;;;23.96;59.3291;101934.9;;;;-72
2023/08/11 07:38:58;;;;;;;;;;;;;;;24.29;58.21191;101936.4;;;;-70
2023/08/11 07:43:17;;;;;;;0.3;0.1;;;;;;;;;;;;;-71
2023/08/11 07:43:58;;;;;;;;;;;;;;;24.6;57.45801;101934.4;;;;-70
2023/08/11 07:49:00;;;;;;;;;;;;;;;25.1;56.55469;101936.7;;;;-70
2023/08/11 07:53:57;;;;;;;;;;;;;;;25.18;56.19629;101937.2;;;;-70
2023/08/11 07:58:58;;;;;;;;;;;;;;;25.48;55.49609;101945.7;;;;-70
2023/08/11 08:04:00;;;;;;;;;;;;;;;25.93;55.1123;101938.8;;;;-70
2023/08/11 08:08:58;;;;;;;;;;;;;;;26.25;54.29785;101943.8;;;;-71
2023/08/11 08:13:21;;;;;;;0.2;0.1;;;;;;;;;;;;;-73
2023/08/11 08:13:58;;;;;;;;;;;;;;;26.44;54.25;101949.4;;;;-71
2023/08/11 08:19:02;;;;;;;;;;;;;;;26.72;53.62402;101946.2;;;;-72
2023/08/11 08:23:58;;;;;;;;;;;;;;;26.97;52.9248;101944.1;;;;-70
2023/08/11 08:28:59;;;;;;;;;;;;;;;27.1;52.8125;101947;;;;-71
2023/08/11 08:33:58;;;;;;;;;;;;;;;27.39;52.67285;101945.3;;;;-70
2023/08/11 08:39:00;;;;;;;;;;;;;;;27.61;51.91992;101940.7;;;;-71
2023/08/11 08:43:26;;;;;;;0.2;0.1;;;;;;;;;;;;;-71
2023/08/11 08:43:58;;;;;;;;;;;;;;;27.84;51.87891;101944.9;;;;-71
2023/08/11 08:49:03;;;;;;;;;;;;;;;28.08;51.66211;101945.4;;;;-71
2023/08/11 08:53:58;;;;;;;;;;;;;;;28.1;51.41992;101944.6;;;;-71
2023/08/11 08:59:01;;;;;;;;;;;;;;;28.26;51.38086;101943;;;;-71
2023/08/11 09:03:58;;;;;;;;;;;;;;;28.34;51.15625;101942.5;;;;-71
2023/08/11 09:08:59;;;;;;;;;;;;;;;28.6;51.31348;101936.8;;;;-70
2023/08/11 09:13:30;;;;;;;1.2;0.3;;;;;;;;;;;;;-70
2023/08/11 09:14:04;;;;;;;;;;;;;;;28.8;50.67285;101939.7;;;;-72
2023/08/11 09:18:58;;;;;;;;;;;;;;;28.89;50.41602;101938.1;;;;-71
2023/08/11 09:23:59;;;;;;;;;;;;;;;29.09;50.16992;101943.8;;;;-70
2023/08/11 09:28:59;;;;;;;;;;;;;;;29.27;49.84082;101930.3;;;;-69
2023/08/11 09:33:58;;;;;;;;;;;;;;;29.32;49.70703;101931.9;;;;-71
2023/08/11 09:38:58;;;;;;;;;;;;;;;29.49;49.70117;101931.1;;;;-72
2023/08/11 09:43:37;;;;;;;0.2;0.1;;;;;;;;;;;;;-72
2023/08/11 09:43:58;;;;;;;;;;;;;;;29.66;49.34766;101930;;;;-70
2023/08/11 09:48:58;;;;;;;;;;;;;;;29.83;49.17969;101925.6;;;;-70
2023/08/11 09:53:58;;;;;;;;;;;;;;;30.1;49.02246;101924.3;;;;-70
2023/08/11 09:58:58;;;;;;;;;;;;;;;30.41;48.61133;101934.6;;;;-71
2023/08/11 10:03:59;;;;;;;;;;;;;;;30.63;47.94531;101935.8;;;;-70
2023/08/11 10:09:00;;;;;;;;;;;;;;;30.76;47.75977;101933.3;;;;-71
2023/08/11 10:13:44;;;;;;;0.2;0;;;;;;;;;;;;;-70
2023/08/11 10:13:59;;;;;;;;;;;;;;;30.87;47.66602;101932.4;;;;-71
2023/08/11 10:18:59;;;;;;;;;;;;;;;30.95;47.81641;101931.5;;;;-70
2023/08/11 10:23:58;;;;;;;;;;;;;;;30.89;47.80957;101932.2;;;;-71
2023/08/11 10:28:58;;;;;;;;;;;;;;;31.05;47.93066;101929.4;;;;-70
2023/08/11 10:33:58;;;;;;;;;;;;;;;31.31;47.96973;101927.4;;;;-71
2023/08/11 10:39:10;;;;;;;;;;;;;;;31.48;47.26172;101928.1;;;;-71
2023/08/11 10:43:50;;;;;;;0.2;0;;;;;;;;;;;;;-71
2023/08/11 10:44:03;;;;;;;;;;;;;;;31.61;47.32227;101927;;;;-71
2023/08/11 10:48:58;;;;;;;;;;;;;;;31.78;47.84375;101926.1;;;;-69
2023/08/11 10:53:58;;;;;;;;;;;;;;;31.97;47.875;101925.3;;;;-70
2023/08/11 10:59:08;;;;;;;;;;;;;;;32.12;47.83301;101926.4;;;;-69
2023/08/11 11:03:58;;;;;;;;;;;;;;;32.28;48.41211;101929.2;;;;-70
2023/08/11 11:08:57;;;;;;;;;;;;;;;32.52;49.71582;101928;;;;-69
2023/08/11 11:13:53;;;;;;;0.2;0;;;;;;;;;;;;;-70
2023/08/11 11:14:05;;;;;;;;;;;;;;;32.49;49.24512;101925.8;;;;-68
2023/08/11 11:18:57;;;;;;;;;;;;;;;32.47;49.25391;101927.9;;;;-71
2023/08/11 11:23:58;;;;;;;;;;;;;;;32.54;50.91406;101929.4;;;;-71
2023/08/11 11:28:58;;;;;;;;;;;;;;;32.52;48.75391;101929.2;;;;-70
2023/08/11 11:33:58;;;;;;;;;;;;;;;32.52;50.2793;101931.9;;;;-70
2023/08/11 11:39:00;;;;;;;;;;;;;;;32.51;47.9668;101935.6;;;;-69
2023/08/11 11:43:58;;;;;;;;;;;;;;;32.38;48.50488;101937.5;;;;-70
2023/08/11 11:44:08;;;;;;;0.2;0.1;;;;;;;;;;;;;-70
2023/08/11 11:48:58;;;;;;;;;;;;;;;32.19;49.02344;101942.8;;;;-69
2023/08/11 11:53:58;;;;;;;;;;;;;;;32.07;49.94922;101941.5;;;;-70
2023/08/11 11:58:58;;;;;;;;;;;;;;;32.1;49.88184;101943.2;;;;-69
2023/08/11 12:03:59;;;;;;;;;;;;;;;32.23;49.70898;101955.4;;;;-70
2023/08/11 12:09:03;;;;;;;;;;;;;;;32.44;51.97168;101954.9;;;;-70
2023/08/11 12:13:57;;;;;;;;;;;;;;;32.46;51.59863;101949.8;;;;-70
2023/08/11 12:14:08;;;;;;;0.1;0;;;;;;;;;;;;;-70
2023/08/11 12:18:58;;;;;;;;;;;;;;;32.46;51.57422;101954.6;;;;-70
2023/08/11 12:23:58;;;;;;;;;;;;;;;32.3;51.61621;101954.6;;;;-70
2023/08/11 12:28:58;;;;;;;;;;;;;;;32.38;52.15137;101956.4;;;;-70
2023/08/11 12:33:58;;;;;;;;;;;;;;;32.46;51.09277;101950;;;;-70
2023/08/11 12:38:58;;;;;;;;;;;;;;;32.46;50.76563;101960.4;;;;-70
2023/08/11 12:43:58;;;;;;;;;;;;;;;32.52;51.0293;101960.9;;;;-70
2023/08/11 12:44:11;;;;;;;0.1;0;;;;;;;;;;;;;-71
2023/08/11 12:48:58;;;;;;;;;;;;;;;32.5;51.90723;101962.4;;;;-70
2023/08/11 12:53:58;;;;;;;;;;;;;;;32.77;51.25781;101969;;;;-69
2023/08/11 12:58:58;;;;;;;;;;;;;;;32.78;51.85742;101965.3;;;;-70
2023/08/11 13:03:59;;;;;;;;;;;;;;;32.69;51.68262;101960.4;;;;-69
2023/08/11 13:08:58;;;;;;;;;;;;;;;32.82;52.26074;101973.1;;;;-69
2023/08/11 13:13:58;;;;;;;;;;;;;;;32.54;51.4668;101966.4;;;;-70
2023/08/11 13:14:18;;;;;;;0.1;0;;;;;;;;;;;;;-69
2023/08/11 13:18:57;;;;;;;;;;;;;;;32.29;51.03906;101954.2;;;;-70
2023/08/11 13:23:58;;;;;;;;;;;;;;;32.19;52.23535;101959.8;;;;-70
2023/08/11 13:28:58;;;;;;;;;;;;;;;32.04;52.01855;101961.6;;;;-69
2023/08/11 13:33:57;;;;;;;;;;;;;;;31.86;51.65918;101949.2;;;;-71
2023/08/11 13:38:57;;;;;;;;;;;;;;;31.61;52.35742;101943.7;;;;-70
2023/08/11 13:43:58;;;;;;;;;;;;;;;31.62;52.54492;101949.3;;;;-71
2023/08/11 13:44:24;;;;;;;0.2;0;;;;;;;;;;;;;-69
2023/08/11 13:48:58;;;;;;;;;;;;;;;31.65;52.44336;101946.4;;;;-70
2023/08/11 13:53:58;;;;;;;;;;;;;;;31.5;52.6709;101937.6;;;;-71
2023/08/11 13:58:58;;;;;;;;;;;;;;;31.41;52.69531;101937.9;;;;-70
2023/08/11 14:03:58;;;;;;;;;;;;;;;31.2;52.5791;101943.1;;;;-73
2023/08/11 14:08:58;;;;;;;;;;;;;;;31.05;52.22266;101936.1;;;;-72
2023/08/11 14:13:59;;;;;;;;;;;;;;;30.86;52.53906;101932.9;;;;-74
2023/08/11 14:14:33;;;;;;;0.2;0;;;;;;;;;;;;;-74
2023/08/11 14:18:57;;;;;;;;;;;;;;;30.73;52.57129;101936.6;;;;-71
2023/08/11 14:23:58;;;;;;;;;;;;;;;30.57;52.45898;101946.1;;;;-70
2023/08/11 14:28:57;;;;;;;;;;;;;;;30.43;51.95313;101943.8;;;;-69
2023/08/11 14:33:58;;;;;;;;;;;;;;;30.41;52.45117;101948.1;;;;-70
2023/08/11 14:38:59;;;;;;;;;;;;;;;30.3;51.73926;101945.9;;;;-69
2023/08/11 14:43:58;;;;;;;;;;;;;;;30.15;52.41113;101938.8;;;;-69
2023/08/11 14:44:36;;;;;;;0.2;0;;;;;;;;;;;;;-70
2023/08/11 14:48:58;;;;;;;;;;;;;;;30.11;53.10645;101936.5;;;;-72
2023/08/11 14:53:58;;;;;;;;;;;;;;;30.12;53.2002;101927;;;;-70
2023/08/11 14:58:58;;;;;;;;;;;;;;;30.11;52.96582;101926.6;;;;-70
2023/08/11 15:03:58;;;;;;;;;;;;;;;29.92;52.36035;101932.3;;;;-70
2023/08/11 15:12:03;;;;;;;;;;;;;;;29.46;53.53027;101944;;;;-71
2023/08/11 15:14:43;;;;;;;0.3;0.1;;;;;;;;;;;;;-75
2023/08/11 15:17:04;;;;;;;;;;;;;;;29.23;53.67773;101959.7;;;;-70
2023/08/11 15:22:03;;;;;;;;;;;;;;;28.98;54.20605;101957.4;;;;-70
2023/08/11 15:27:03;;;;;;;;;;;;;;;28.83;53.86328;101944.6;;;;-70
2023/08/11 15:32:03;;;;;;;;;;;;;;;28.71;54.50098;101936.7;;;;-71
2023/08/11 15:37:04;;;;;;;;;;;;;;;28.61;54.62695;101944.4;;;;-70
2023/08/11 15:42:04;;;;;;;;;;;;;;;28.42;54.66211;101944.8;;;;-69
2023/08/11 15:44:48;;;;;;;0.2;0;;;;;;;;;;;;;-71
2023/08/11 15:47:03;;;;;;;;;;;;;;;28.19;55.11035;101948.7;;;;-69
2023/08/11 15:52:03;;;;;;;;;;;;;;;27.95;54.80273;101949.5;;;;-74
2023/08/11 15:57:06;;;;;;;;;;;;;;;27.72;55.26172;101941.7;;;;-70
2023/08/11 16:02:03;;;;;;;;;;;;;;;27.5;55.4668;101940.8;;;;-70
2023/08/11 16:07:04;;;;;;;;;;;;;;;27.37;55.77539;101935;;;;-70
2023/08/11 16:12:06;;;;;;;;;;;;;;;27.25;55.69043;101933.3;;;;-70
2023/08/11 16:14:53;;;;;;;0.2;0;;;;;;;;;;;;;-72
2023/08/11 16:17:04;;;;;;;;;;;;;;;27.05;55.85059;101929.1;;;;-71
2023/08/11 16:22:03;;;;;;;;;;;;;;;26.91;56.59863;101931.2;;;;-70
2023/08/11 16:27:04;;;;;;;;;;;;;;;26.77;56.52246;101929.3;;;;-71
2023/08/11 16:32:06;;;;;;;;;;;;;;;26.65;56.63477;101929.6;;;;-71
2023/08/11 16:37:03;;;;;;;;;;;;;;;26.54;56.63086;101927;;;;-70
2023/08/11 16:42:05;;;;;;;;;;;;;;;26.36;56.89746;101922.2;;;;-70
2023/08/11 16:44:58;;;;;;;0.2;0;;;;;;;;;;;;;-71
2023/08/11 16:47:03;;;;;;;;;;;;;;;26.13;57.59668;101917.8;;;;-70
2023/08/11 16:52:04;;;;;;;;;;;;;;;26;57.30273;101919.1;;;;-71
2023/08/11 16:57:04;;;;;;;;;;;;;;;25.87;57.63281;101916.7;;;;-70
2023/08/11 17:02:03;;;;;;;;;;;;;;;25.75;57.87012;101915.6;;;;-70
2023/08/11 17:07:03;;;;;;;;;;;;;;;25.57;58.32129;101923.7;;;;-72
2023/08/11 17:12:03;;;;;;;;;;;;;;;25.41;58.06836;101911.4;;;;-74
2023/08/11 17:15:03;;;;;;;0.2;0;;;;;;;;;;;;;-75
2023/08/11 17:17:03;;;;;;;;;;;;;;;25.25;58.78613;101915;;;;-75
2023/08/11 17:22:05;;;;;;;;;;;;;;;25.1;58.81152;101906.8;;;;-74
2023/08/11 17:27:03;;;;;;;;;;;;;;;24.94;59.14844;101902.1;;;;-74
2023/08/11 17:32:05;;;;;;;;;;;;;;;24.82;59.54492;101901.2;;;;-70
2023/08/11 17:37:04;;;;;;;;;;;;;;;24.65;59.68457;101900.1;;;;-71
2023/08/11 17:42:08;;;;;;;;;;;;;;;24.53;59.29004;101895.4;;;;-72
2023/08/11 17:45:07;;;;;;;0.2;0;;;;;;;;;;;;;-72
2023/08/11 17:47:04;;;;;;;;;;;;;;;24.36;59.93359;101896.3;;;;-70
2023/08/11 17:52:03;;;;;;;;;;;;;;;24.22;59.90332;101898.9;;;;-71
2023/08/11 17:57:03;;;;;;;;;;;;;;;24.11;60.14063;101896;;;;-71
2023/08/11 18:02:09;;;;;;;;;;;;;;;23.99;61.09961;101888.9;;;;-70
2023/08/11 18:07:04;;;;;;;;;;;;;;;23.87;60.80859;101878.8;;;;-71
2023/08/11 18:12:04;;;;;;;;;;;;;;;23.76;61.25293;101879.3;;;;-71
2023/08/11 18:15:12;;;;;;;0.2;0;;;;;;;;;;;;;-71
2023/08/11 18:17:03;;;;;;;;;;;;;;;23.64;60.55859;101878.2;;;;-70
2023/08/11 18:22:03;;;;;;;;;;;;;;;23.53;61.66992;101883;;;;-72
2023/08/11 18:27:03;;;;;;;;;;;;;;;23.42;61.14941;101895.1;;;;-71
2023/08/11 18:32:03;;;;;;;;;;;;;;;23.31;62.24512;101897.9;;;;-70
2023/08/11 18:37:03;;;;;;;;;;;;;;;23.2;62.8252;101899.1;;;;-70
2023/08/11 18:42:06;;;;;;;;;;;;;;;23.1;62.87988;101898.1;;;;-71
2023/08/11 18:45:16;;;;;;;0.2;0;;;;;;;;;;;;;-70
2023/08/11 18:47:03;;;;;;;;;;;;;;;23.01;63.09668;101901.4;;;;-71
2023/08/11 18:52:04;;;;;;;;;;;;;;;22.91;63.19727;101903.3;;;;-70
2023/08/11 18:57:03;;;;;;;;;;;;;;;22.83;63.5625;101902.9;;;;-70
2023/08/11 19:02:04;;;;;;;;;;;;;;;22.74;64.24707;101903.3;;;;-70
2023/08/11 19:07:06;;;;;;;;;;;;;;;22.66;64.73926;101895.3;;;;-70
2023/08/11 19:12:03;;;;;;;;;;;;;;;22.55;64.68945;101900.6;;;;-71
2023/08/11 19:15:19;;;;;;;0.2;0;;;;;;;;;;;;;-71
2023/08/11 19:17:04;;;;;;;;;;;;;;;22.45;64.67383;101899.9;;;;-71
2023/08/11 19:22:04;;;;;;;;;;;;;;;22.34;65.46875;101892;;;;-70
2023/08/11 19:27:03;;;;;;;;;;;;;;;22.28;65.4375;101892.4;;;;-70
2023/08/11 19:32:04;;;;;;;;;;;;;;;22.2;65.39063;101893.4;;;;-71
2023/08/11 19:37:04;;;;;;;;;;;;;;;22.13;66.30469;101894.1;;;;-70
2023/08/11 19:42:03;;;;;;;;;;;;;;;22.06;65.80566;101896.6;;;;-70
2023/08/11 19:45:23;;;;;;;0.2;0.1;;;;;;;;;;;;;-71
2023/08/11 19:47:03;;;;;;;;;;;;;;;21.98;66.17969;101900.9;;;;-70
2023/08/11 19:52:03;;;;;;;;;;;;;;;21.9;66.56836;101899.1;;;;-71
2023/08/11 19:57:03;;;;;;;;;;;;;;;21.85;66.28613;101902.3;;;;-69
2023/08/11 20:02:03;;;;;;;;;;;;;;;21.8;67.05469;101893.3;;;;-71
2023/08/11 20:07:04;;;;;;;;;;;;;;;21.75;67.20605;101881.7;;;;-71
2023/08/11 20:12:03;;;;;;;;;;;;;;;21.67;66.9541;101876.8;;;;-72
2023/08/11 20:15:27;;;;;;;0.2;0;;;;;;;;;;;;;-71
2023/08/11 20:17:04;;;;;;;;;;;;;;;21.64;67.91895;101872.2;;;;-71
2023/08/11 20:22:04;;;;;;;;;;;;;;;21.59;67.77344;101878.8;;;;-71
2023/08/11 20:27:04;;;;;;;;;;;;;;;21.53;67.7666;101870.3;;;;-71
2023/08/11 20:32:04;;;;;;;;;;;;;;;21.48;67.59863;101872.6;;;;-71
2023/08/11 20:37:03;;;;;;;;;;;;;;;21.45;68.18555;101863.4;;;;-70
2023/08/11 20:42:03;;;;;;;;;;;;;;;21.37;68.15039;101855.5;;;;-72
2023/08/11 20:45:31;;;;;;;0.2;0.1;;;;;;;;;;;;;-70
2023/08/11 20:47:04;;;;;;;;;;;;;;;21.34;67.73828;101848.5;;;;-70
2023/08/11 20:52:03;;;;;;;;;;;;;;;21.29;68.24219;101848.7;;;;-70
2023/08/11 20:57:03;;;;;;;;;;;;;;;21.25;67.75781;101850.9;;;;-71
2023/08/11 21:02:03;;;;;;;;;;;;;;;21.21;67.7627;101844.9;;;;-71
2023/08/11 21:07:03;;;;;;;;;;;;;;;21.17;68.47266;101843.2;;;;-70
2023/08/11 21:12:05;;;;;;;;;;;;;;;21.09;68.30273;101840.7;;;;-72
2023/08/11 21:15:37;;;;;;;0.2;0;;;;;;;;;;;;;-71
2023/08/11 21:17:03;;;;;;;;;;;;;;;21.02;68.74609;101836.3;;;;-73
2023/08/11 21:22:03;;;;;;;;;;;;;;;20.95;68.99609;101833;;;;-70
2023/08/11 21:27:03;;;;;;;;;;;;;;;20.91;69.69434;101845;;;;-71
2023/08/11 21:32:03;;;;;;;;;;;;;;;20.86;69.41406;101849;;;;-70
2023/08/11 21:37:04;;;;;;;;;;;;;;;20.81;69.83789;101841.3;;;;-70
2023/08/11 21:42:03;;;;;;;;;;;;;;;20.77;69.90137;101841.2;;;;-71
2023/08/11 21:45:37;;;;;;;0.2;0.1;;;;;;;;;;;;;-72
2023/08/11 21:47:04;;;;;;;;;;;;;;;20.73;70.07617;101842.3;;;;-71
2023/08/11 21:52:05;;;;;;;;;;;;;;;20.67;70.52148;101841.5;;;;-71
2023/08/11 21:57:03;;;;;;;;;;;;;;;20.63;70.67188;101839.1;;;;-71
2023/08/11 22:02:04;;;;;;;;;;;;;;;20.58;70.70996;101837.2;;;;-71
2023/08/11 22:07:04;;;;;;;;;;;;;;;20.52;71.45117;101822.4;;;;-72
2023/08/11 22:12:03;;;;;;;;;;;;;;;20.47;71.02344;101821;;;;-72
2023/08/11 22:15:40;;;;;;;0.2;0;;;;;;;;;;;;;-73
2023/08/11 22:17:04;;;;;;;;;;;;;;;20.42;71.40039;101817.8;;;;-70
2023/08/11 22:22:04;;;;;;;;;;;;;;;20.39;71.38672;101817.9;;;;-72
2023/08/11 22:27:03;;;;;;;;;;;;;;;20.35;71.42285;101822.5;;;;-71
2023/08/11 22:32:03;;;;;;;;;;;;;;;20.3;71.97168;101829.1;;;;-71
2023/08/11 22:37:03;;;;;;;;;;;;;;;20.28;71.67383;101828.5;;;;-71
2023/08/11 22:42:06;;;;;;;;;;;;;;;20.26;71.89648;101824.9;;;;-70
2023/08/11 22:45:43;;;;;;;0.7;0.3;;;;;;;;;;;;;-72
2023/08/11 22:47:03;;;;;;;;;;;;;;;20.22;72.61621;101824.7;;;;-71
2023/08/11 22:52:04;;;;;;;;;;;;;;;20.2;72.53418;101821;;;;-73
2023/08/11 22:57:03;;;;;;;;;;;;;;;20.18;72.30371;101820.6;;;;-72
2023/08/11 23:02:03;;;;;;;;;;;;;;;20.17;72.6543;101817;;;;-71
2023/08/11 23:07:03;;;;;;;;;;;;;;;20.12;72.89453;101803;;;;-72
2023/08/11 23:12:04;;;;;;;;;;;;;;;20.09;72.70898;101800.6;;;;-71
2023/08/11 23:15:46;;;;;;;0.2;0;;;;;;;;;;;;;-72
2023/08/11 23:17:04;;;;;;;;;;;;;;;20.04;73.5498;101798.8;;;;-72
2023/08/11 23:22:04;;;;;;;;;;;;;;;20.02;73.11621;101802.3;;;;-71
2023/08/11 23:27:03;;;;;;;;;;;;;;;19.99;73.30469;101808;;;;-72
2023/08/11 23:32:03;;;;;;;;;;;;;;;19.98;73.61816;101807.4;;;;-72
2023/08/11 23:37:03;;;;;;;;;;;;;;;19.92;73.93945;101794.8;;;;-74
2023/08/11 23:42:05;;;;;;;;;;;;;;;19.9;74.01465;101788.3;;;;-71
2023/08/11 23:45:50;;;;;;;0.2;0.1;;;;;;;;;;;;;-72
2023/08/11 23:47:03;;;;;;;;;;;;;;;19.85;73.67676;101784.4;;;;-72
2023/08/11 23:52:04;;;;;;;;;;;;;;;19.82;73.50391;101786.1;;;;-72
2023/08/11 23:57:04;;;;;;;;;;;;;;;19.79;73.42969;101770.6;;;;-70
